Terminal Aerodrome Forecast
Issued by NWS Charleston, WV

Current Version | Previous Version | Text Only | Print | Product List | Glossary Off
Versions: 1 2 3 4 5 6 7 8 9 10 11 12 13 14 15 16 17 18 19 20 21 22 23 24 25 26 27 28

000
FTUS41 KRLX 041723
TAFEKN
TAF
KEKN 041723Z 0418/0518 27008KT P6SM SCT050
     FM042300 28004KT P6SM FEW050
     FM050500 00000KT 6SM BR SCT045
     FM050600 00000KT 3SM BR SCT040
     FM051200 00000KT 6SM BR SCT050
     FM051400 29006KT P6SM SCT050=

USA.gov is the U.S. government's official web portal to all federal, state and local government web resources and services.